sensor_id;sensor_type;location;lat;lon;timestamp;P1;durP1;ratioP1;P2;durP2;ratioP2
36221;SDS011;22266;52.340;4.962;2024-01-30T00:00:46;33.25;;;31.50;;
36221;SDS011;22266;52.340;4.962;2024-01-30T00:03:13;34.00;;;33.75;;
36221;SDS011;22266;52.340;4.962;2024-01-30T00:05:40;37.00;;;31.00;;
36221;SDS011;22266;52.340;4.962;2024-01-30T00:08:07;30.50;;;23.25;;
36221;SDS011;22266;52.340;4.962;2024-01-30T00:10:33;37.25;;;32.00;;
36221;SDS011;22266;52.340;4.962;2024-01-30T00:13:00;34.25;;;32.00;;
36221;SDS011;22266;52.340;4.962;2024-01-30T00:15:27;37.50;;;33.25;;
36221;SDS011;22266;52.340;4.962;2024-01-30T00:17:54;36.25;;;32.00;;
36221;SDS011;22266;52.340;4.962;2024-01-30T00:20:20;40.75;;;34.00;;
36221;SDS011;22266;52.340;4.962;2024-01-30T00:22:47;36.00;;;32.00;;
36221;SDS011;22266;52.340;4.962;2024-01-30T00:25:14;34.25;;;32.75;;
36221;SDS011;22266;52.340;4.962;2024-01-30T00:27:41;32.25;;;29.25;;
36221;SDS011;22266;52.340;4.962;2024-01-30T00:30:08;28.50;;;28.50;;
36221;SDS011;22266;52.340;4.962;2024-01-30T00:32:35;28.75;;;26.50;;
36221;SDS011;22266;52.340;4.962;2024-01-30T00:35:02;30.25;;;28.00;;
36221;SDS011;22266;52.340;4.962;2024-01-30T00:37:29;26.00;;;24.50;;
36221;SDS011;22266;52.340;4.962;2024-01-30T00:39:57;27.75;;;24.00;;
36221;SDS011;22266;52.340;4.962;2024-01-30T00:42:24;35.25;;;32.75;;
36221;SDS011;22266;52.340;4.962;2024-01-30T00:44:51;29.75;;;28.25;;
36221;SDS011;22266;52.340;4.962;2024-01-30T00:47:18;29.00;;;28.50;;
36221;SDS011;22266;52.340;4.962;2024-01-30T00:49:44;23.25;;;20.25;;
36221;SDS011;22266;52.340;4.962;2024-01-30T00:52:11;32.50;;;29.00;;
36221;SDS011;22266;52.340;4.962;2024-01-30T00:54:38;37.25;;;32.00;;
36221;SDS011;22266;52.340;4.962;2024-01-30T00:57:05;29.00;;;25.50;;
36221;SDS011;22266;52.340;4.962;2024-01-30T00:59:31;33.75;;;27.75;;
36221;SDS011;22266;52.340;4.962;2024-01-30T01:01:58;31.50;;;27.50;;
36221;SDS011;22266;52.340;4.962;2024-01-30T01:04:24;31.00;;;28.50;;
36221;SDS011;22266;52.340;4.962;2024-01-30T01:06:53;21.25;;;19.75;;
36221;SDS011;22266;52.340;4.962;2024-01-30T01:09:20;25.25;;;22.25;;
36221;SDS011;22266;52.340;4.962;2024-01-30T01:11:46;22.25;;;20.50;;
36221;SDS011;22266;52.340;4.962;2024-01-30T01:14:14;21.25;;;21.25;;
36221;SDS011;22266;52.340;4.962;2024-01-30T01:16:40;30.75;;;24.00;;
36221;SDS011;22266;52.340;4.962;2024-01-30T01:19:07;21.00;;;19.50;;
36221;SDS011;22266;52.340;4.962;2024-01-30T01:21:34;31.50;;;26.25;;
36221;SDS011;22266;52.340;4.962;2024-01-30T01:24:00;29.75;;;25.75;;
36221;SDS011;22266;52.340;4.962;2024-01-30T01:26:27;27.75;;;26.00;;
36221;SDS011;22266;52.340;4.962;2024-01-30T01:28:54;31.50;;;26.00;;
36221;SDS011;22266;52.340;4.962;2024-01-30T01:31:20;36.00;;;29.00;;
36221;SDS011;22266;52.340;4.962;2024-01-30T01:33:50;25.75;;;25.75;;
36221;SDS011;22266;52.340;4.962;2024-01-30T01:36:17;28.00;;;24.50;;
36221;SDS011;22266;52.340;4.962;2024-01-30T01:38:44;30.75;;;28.50;;
36221;SDS011;22266;52.340;4.962;2024-01-30T01:41:11;30.50;;;28.25;;
36221;SDS011;22266;52.340;4.962;2024-01-30T01:43:37;22.75;;;20.00;;
36221;SDS011;22266;52.340;4.962;2024-01-30T01:46:07;30.75;;;28.75;;
36221;SDS011;22266;52.340;4.962;2024-01-30T01:48:35;25.50;;;24.75;;
36221;SDS011;22266;52.340;4.962;2024-01-30T01:51:04;30.75;;;26.00;;
36221;SDS011;22266;52.340;4.962;2024-01-30T01:53:31;20.25;;;20.25;;
36221;SDS011;22266;52.340;4.962;2024-01-30T01:55:57;27.00;;;25.25;;
36221;SDS011;22266;52.340;4.962;2024-01-30T01:58:24;26.00;;;25.50;;
36221;SDS011;22266;52.340;4.962;2024-01-30T02:00:55;21.25;;;20.25;;
36221;SDS011;22266;52.340;4.962;2024-01-30T02:03:23;26.25;;;25.25;;
36221;SDS011;22266;52.340;4.962;2024-01-30T02:05:50;26.75;;;25.75;;
36221;SDS011;22266;52.340;4.962;2024-01-30T02:08:17;24.75;;;21.75;;
36221;SDS011;22266;52.340;4.962;2024-01-30T02:10:44;27.75;;;27.00;;
36221;SDS011;22266;52.340;4.962;2024-01-30T02:13:11;23.25;;;23.25;;
36221;SDS011;22266;52.340;4.962;2024-01-30T02:15:38;27.75;;;25.25;;
36221;SDS011;22266;52.340;4.962;2024-01-30T02:18:04;32.00;;;29.00;;
36221;SDS011;22266;52.340;4.962;2024-01-30T02:20:31;28.00;;;26.75;;
36221;SDS011;22266;52.340;4.962;2024-01-30T02:23:01;29.00;;;29.00;;
36221;SDS011;22266;52.340;4.962;2024-01-30T02:25:32;28.50;;;27.00;;
36221;SDS011;22266;52.340;4.962;2024-01-30T02:28:00;28.00;;;24.50;;
36221;SDS011;22266;52.340;4.962;2024-01-30T02:30:26;25.25;;;21.50;;
36221;SDS011;22266;52.340;4.962;2024-01-30T02:32:53;27.25;;;24.25;;
36221;SDS011;22266;52.340;4.962;2024-01-30T02:35:20;24.75;;;23.25;;
36221;SDS011;22266;52.340;4.962;2024-01-30T02:37:46;32.50;;;28.75;;
36221;SDS011;22266;52.340;4.962;2024-01-30T02:40:13;26.00;;;24.25;;
36221;SDS011;22266;52.340;4.962;2024-01-30T02:42:39;26.50;;;22.50;;
36221;SDS011;22266;52.340;4.962;2024-01-30T02:45:06;28.25;;;27.25;;
36221;SDS011;22266;52.340;4.962;2024-01-30T02:47:33;26.50;;;25.25;;
36221;SDS011;22266;52.340;4.962;2024-01-30T02:50:00;25.25;;;23.00;;
36221;SDS011;22266;52.340;4.962;2024-01-30T02:52:27;23.75;;;20.75;;
36221;SDS011;22266;52.340;4.962;2024-01-30T02:54:54;22.00;;;21.00;;
36221;SDS011;22266;52.340;4.962;2024-01-30T02:57:20;24.25;;;19.75;;
36221;SDS011;22266;52.340;4.962;2024-01-30T02:59:47;22.75;;;21.00;;
36221;SDS011;22266;52.340;4.962;2024-01-30T03:02:13;18.75;;;17.25;;
36221;SDS011;22266;52.340;4.962;2024-01-30T03:04:43;23.50;;;20.50;;
36221;SDS011;22266;52.340;4.962;2024-01-30T03:07:10;25.00;;;23.50;;
36221;SDS011;22266;52.340;4.962;2024-01-30T03:09:36;29.25;;;25.75;;
36221;SDS011;22266;52.340;4.962;2024-01-30T03:12:03;25.50;;;21.00;;
36221;SDS011;22266;52.340;4.962;2024-01-30T03:14:34;24.00;;;24.00;;
36221;SDS011;22266;52.340;4.962;2024-01-30T03:17:01;22.50;;;21.75;;
36221;SDS011;22266;52.340;4.962;2024-01-30T03:19:28;24.50;;;24.25;;
36221;SDS011;22266;52.340;4.962;2024-01-30T03:21:55;19.00;;;17.25;;
36221;SDS011;22266;52.340;4.962;2024-01-30T03:24:21;21.50;;;20.00;;
36221;SDS011;22266;52.340;4.962;2024-01-30T03:26:48;25.25;;;21.50;;
36221;SDS011;22266;52.340;4.962;2024-01-30T03:29:14;30.50;;;23.75;;
36221;SDS011;22266;52.340;4.962;2024-01-30T03:31:42;26.00;;;21.50;;
36221;SDS011;22266;52.340;4.962;2024-01-30T03:34:08;23.00;;;21.50;;
36221;SDS011;22266;52.340;4.962;2024-01-30T03:36:35;17.50;;;17.50;;
36221;SDS011;22266;52.340;4.962;2024-01-30T03:39:01;19.50;;;18.50;;
36221;SDS011;22266;52.340;4.962;2024-01-30T03:41:28;22.00;;;21.00;;
36221;SDS011;22266;52.340;4.962;2024-01-30T03:43:55;22.75;;;22.75;;
36221;SDS011;22266;52.340;4.962;2024-01-30T03:46:21;22.00;;;20.75;;
36221;SDS011;22266;52.340;4.962;2024-01-30T03:48:48;22.00;;;21.25;;
36221;SDS011;22266;52.340;4.962;2024-01-30T03:51:14;23.25;;;23.00;;
36221;SDS011;22266;52.340;4.962;2024-01-30T03:53:42;23.25;;;20.00;;
36221;SDS011;22266;52.340;4.962;2024-01-30T03:56:09;24.75;;;18.00;;
36221;SDS011;22266;52.340;4.962;2024-01-30T03:58:36;21.00;;;20.00;;
36221;SDS011;22266;52.340;4.962;2024-01-30T04:01:02;24.75;;;24.00;;
36221;SDS011;22266;52.340;4.962;2024-01-30T04:03:30;23.50;;;19.75;;
36221;SDS011;22266;52.340;4.962;2024-01-30T04:05:56;22.00;;;19.50;;
36221;SDS011;22266;52.340;4.962;2024-01-30T04:08:23;22.25;;;19.75;;
36221;SDS011;22266;52.340;4.962;2024-01-30T04:10:50;27.75;;;26.25;;
36221;SDS011;22266;52.340;4.962;2024-01-30T04:13:16;23.50;;;23.25;;
36221;SDS011;22266;52.340;4.962;2024-01-30T04:15:43;31.50;;;25.75;;
36221;SDS011;22266;52.340;4.962;2024-01-30T04:18:09;26.75;;;23.75;;
36221;SDS011;22266;52.340;4.962;2024-01-30T04:20:36;25.25;;;25.00;;
36221;SDS011;22266;52.340;4.962;2024-01-30T04:23:03;22.00;;;20.00;;
36221;SDS011;22266;52.340;4.962;2024-01-30T04:25:29;23.50;;;21.00;;
36221;SDS011;22266;52.340;4.962;2024-01-30T04:27:56;22.75;;;22.75;;
36221;SDS011;22266;52.340;4.962;2024-01-30T04:30:23;27.00;;;22.75;;
36221;SDS011;22266;52.340;4.962;2024-01-30T04:32:49;24.00;;;23.25;;
36221;SDS011;22266;52.340;4.962;2024-01-30T04:35:16;24.00;;;21.00;;
36221;SDS011;22266;52.340;4.962;2024-01-30T04:37:43;25.00;;;21.75;;
36221;SDS011;22266;52.340;4.962;2024-01-30T04:40:09;25.50;;;23.75;;
36221;SDS011;22266;52.340;4.962;2024-01-30T04:42:36;22.75;;;21.25;;
36221;SDS011;22266;52.340;4.962;2024-01-30T04:45:03;20.00;;;20.00;;
36221;SDS011;22266;52.340;4.962;2024-01-30T04:47:30;22.00;;;17.25;;
36221;SDS011;22266;52.340;4.962;2024-01-30T04:49:56;20.25;;;19.50;;
36221;SDS011;22266;52.340;4.962;2024-01-30T04:52:23;20.75;;;20.25;;
36221;SDS011;22266;52.340;4.962;2024-01-30T04:54:50;20.25;;;19.75;;
36221;SDS011;22266;52.340;4.962;2024-01-30T04:57:16;26.75;;;24.00;;
36221;SDS011;22266;52.340;4.962;2024-01-30T04:59:43;23.00;;;22.00;;
36221;SDS011;22266;52.340;4.962;2024-01-30T05:02:10;18.25;;;14.25;;
36221;SDS011;22266;52.340;4.962;2024-01-30T05:04:36;15.50;;;15.50;;
36221;SDS011;22266;52.340;4.962;2024-01-30T05:07:03;19.50;;;19.50;;
36221;SDS011;22266;52.340;4.962;2024-01-30T05:09:30;25.50;;;20.75;;
36221;SDS011;22266;52.340;4.962;2024-01-30T05:11:57;23.00;;;21.50;;
36221;SDS011;22266;52.340;4.962;2024-01-30T05:14:24;33.00;;;25.50;;
36221;SDS011;22266;52.340;4.962;2024-01-30T05:16:51;28.25;;;22.50;;
36221;SDS011;22266;52.340;4.962;2024-01-30T05:19:17;24.25;;;20.75;;
36221;SDS011;22266;52.340;4.962;2024-01-30T05:21:44;24.50;;;21.25;;
36221;SDS011;22266;52.340;4.962;2024-01-30T05:24:11;24.50;;;21.75;;
36221;SDS011;22266;52.340;4.962;2024-01-30T05:26:38;23.75;;;22.75;;
36221;SDS011;22266;52.340;4.962;2024-01-30T05:29:04;32.00;;;28.50;;
36221;SDS011;22266;52.340;4.962;2024-01-30T05:31:32;20.00;;;17.00;;
36221;SDS011;22266;52.340;4.962;2024-01-30T05:33:58;20.25;;;19.75;;
36221;SDS011;22266;52.340;4.962;2024-01-30T05:36:25;22.00;;;20.75;;
36221;SDS011;22266;52.340;4.962;2024-01-30T05:38:52;19.50;;;19.50;;
36221;SDS011;22266;52.340;4.962;2024-01-30T05:41:19;20.25;;;17.00;;
36221;SDS011;22266;52.340;4.962;2024-01-30T05:43:47;26.00;;;25.50;;
36221;SDS011;22266;52.340;4.962;2024-01-30T05:46:14;28.50;;;24.00;;
36221;SDS011;22266;52.340;4.962;2024-01-30T05:48:41;23.50;;;20.75;;
36221;SDS011;22266;52.340;4.962;2024-01-30T05:51:07;23.50;;;21.75;;
36221;SDS011;22266;52.340;4.962;2024-01-30T05:53:34;23.25;;;20.25;;
36221;SDS011;22266;52.340;4.962;2024-01-30T05:56:01;24.25;;;19.50;;
36221;SDS011;22266;52.340;4.962;2024-01-30T05:58:28;24.00;;;19.75;;
36221;SDS011;22266;52.340;4.962;2024-01-30T06:00:55;21.25;;;19.75;;
36221;SDS011;22266;52.340;4.962;2024-01-30T06:03:22;25.00;;;21.00;;
36221;SDS011;22266;52.340;4.962;2024-01-30T06:05:48;25.25;;;25.00;;
36221;SDS011;22266;52.340;4.962;2024-01-30T06:08:15;26.00;;;20.25;;
36221;SDS011;22266;52.340;4.962;2024-01-30T06:10:42;22.00;;;18.50;;
36221;SDS011;22266;52.340;4.962;2024-01-30T06:13:08;20.50;;;20.50;;
36221;SDS011;22266;52.340;4.962;2024-01-30T06:15:35;29.00;;;25.00;;
36221;SDS011;22266;52.340;4.962;2024-01-30T06:18:01;22.00;;;20.50;;
36221;SDS011;22266;52.340;4.962;2024-01-30T06:20:28;20.75;;;19.50;;
36221;SDS011;22266;52.340;4.962;2024-01-30T06:22:55;24.25;;;24.00;;
36221;SDS011;22266;52.340;4.962;2024-01-30T06:25:21;23.00;;;20.50;;
36221;SDS011;22266;52.340;4.962;2024-01-30T06:27:48;21.75;;;20.50;;
36221;SDS011;22266;52.340;4.962;2024-01-30T06:30:15;23.00;;;20.75;;
36221;SDS011;22266;52.340;4.962;2024-01-30T06:32:42;19.50;;;18.50;;
36221;SDS011;22266;52.340;4.962;2024-01-30T06:35:08;22.00;;;22.00;;
36221;SDS011;22266;52.340;4.962;2024-01-30T06:37:36;24.00;;;22.00;;
36221;SDS011;22266;52.340;4.962;2024-01-30T06:40:03;25.75;;;24.50;;
36221;SDS011;22266;52.340;4.962;2024-01-30T06:42:31;21.50;;;21.25;;
36221;SDS011;22266;52.340;4.962;2024-01-30T06:44:58;21.00;;;20.25;;
36221;SDS011;22266;52.340;4.962;2024-01-30T06:47:24;27.25;;;24.50;;
36221;SDS011;22266;52.340;4.962;2024-01-30T06:49:51;20.50;;;19.00;;
36221;SDS011;22266;52.340;4.962;2024-01-30T06:52:18;19.50;;;18.50;;
36221;SDS011;22266;52.340;4.962;2024-01-30T06:54:44;20.50;;;19.00;;
36221;SDS011;22266;52.340;4.962;2024-01-30T06:57:11;19.00;;;19.00;;
36221;SDS011;22266;52.340;4.962;2024-01-30T06:59:38;19.50;;;19.50;;
36221;SDS011;22266;52.340;4.962;2024-01-30T07:02:09;23.25;;;22.50;;
36221;SDS011;22266;52.340;4.962;2024-01-30T07:04:37;29.75;;;23.50;;
36221;SDS011;22266;52.340;4.962;2024-01-30T07:07:08;20.00;;;19.50;;
36221;SDS011;22266;52.340;4.962;2024-01-30T07:09:38;23.25;;;21.75;;
36221;SDS011;22266;52.340;4.962;2024-01-30T07:12:06;26.75;;;26.50;;
36221;SDS011;22266;52.340;4.962;2024-01-30T07:14:33;19.25;;;18.00;;
36221;SDS011;22266;52.340;4.962;2024-01-30T07:16:59;24.00;;;22.25;;
36221;SDS011;22266;52.340;4.962;2024-01-30T07:19:26;19.25;;;19.25;;
36221;SDS011;22266;52.340;4.962;2024-01-30T07:21:53;16.25;;;16.00;;
36221;SDS011;22266;52.340;4.962;2024-01-30T07:24:19;26.00;;;21.50;;
36221;SDS011;22266;52.340;4.962;2024-01-30T07:26:46;23.75;;;21.25;;
36221;SDS011;22266;52.340;4.962;2024-01-30T07:29:12;24.25;;;23.00;;
36221;SDS011;22266;52.340;4.962;2024-01-30T07:31:39;21.25;;;21.25;;
36221;SDS011;22266;52.340;4.962;2024-01-30T07:34:06;28.25;;;23.75;;
36221;SDS011;22266;52.340;4.962;2024-01-30T07:36:33;24.00;;;19.00;;
36221;SDS011;22266;52.340;4.962;2024-01-30T07:39:00;23.50;;;20.00;;
36221;SDS011;22266;52.340;4.962;2024-01-30T07:41:26;21.25;;;19.25;;
36221;SDS011;22266;52.340;4.962;2024-01-30T07:43:53;29.00;;;26.00;;
36221;SDS011;22266;52.340;4.962;2024-01-30T07:46:20;24.75;;;23.50;;
36221;SDS011;22266;52.340;4.962;2024-01-30T07:48:46;22.00;;;22.00;;
36221;SDS011;22266;52.340;4.962;2024-01-30T07:51:14;32.00;;;28.75;;
36221;SDS011;22266;52.340;4.962;2024-01-30T07:53:41;29.25;;;23.75;;
36221;SDS011;22266;52.340;4.962;2024-01-30T07:56:08;22.75;;;21.50;;
36221;SDS011;22266;52.340;4.962;2024-01-30T07:58:34;30.00;;;23.50;;
36221;SDS011;22266;52.340;4.962;2024-01-30T08:01:01;23.00;;;21.00;;
36221;SDS011;22266;52.340;4.962;2024-01-30T08:03:28;23.00;;;21.00;;
36221;SDS011;22266;52.340;4.962;2024-01-30T08:05:55;24.75;;;22.75;;
36221;SDS011;22266;52.340;4.962;2024-01-30T08:08:21;25.00;;;23.00;;
36221;SDS011;22266;52.340;4.962;2024-01-30T08:10:48;19.00;;;17.75;;
36221;SDS011;22266;52.340;4.962;2024-01-30T08:13:16;27.75;;;26.50;;
36221;SDS011;22266;52.340;4.962;2024-01-30T08:15:42;23.50;;;20.50;;
36221;SDS011;22266;52.340;4.962;2024-01-30T08:18:09;21.00;;;18.50;;
36221;SDS011;22266;52.340;4.962;2024-01-30T08:20:36;27.50;;;19.75;;
36221;SDS011;22266;52.340;4.962;2024-01-30T08:23:02;21.25;;;18.50;;
36221;SDS011;22266;52.340;4.962;2024-01-30T08:25:29;26.00;;;20.75;;
36221;SDS011;22266;52.340;4.962;2024-01-30T08:27:56;26.75;;;23.50;;
36221;SDS011;22266;52.340;4.962;2024-01-30T08:30:24;18.50;;;18.50;;
36221;SDS011;22266;52.340;4.962;2024-01-30T08:32:51;22.75;;;20.00;;
36221;SDS011;22266;52.340;4.962;2024-01-30T08:35:18;18.75;;;18.75;;
36221;SDS011;22266;52.340;4.962;2024-01-30T08:37:46;19.50;;;16.00;;
36221;SDS011;22266;52.340;4.962;2024-01-30T08:40:12;20.50;;;18.00;;
36221;SDS011;22266;52.340;4.962;2024-01-30T08:42:39;19.00;;;19.00;;
36221;SDS011;22266;52.340;4.962;2024-01-30T08:45:06;20.25;;;18.00;;
36221;SDS011;22266;52.340;4.962;2024-01-30T08:47:33;24.50;;;21.75;;
36221;SDS011;22266;52.340;4.962;2024-01-30T08:50:00;23.50;;;21.00;;
36221;SDS011;22266;52.340;4.962;2024-01-30T08:52:27;23.25;;;21.75;;
36221;SDS011;22266;52.340;4.962;2024-01-30T08:54:53;20.25;;;19.00;;
36221;SDS011;22266;52.340;4.962;2024-01-30T08:57:20;29.50;;;25.50;;
36221;SDS011;22266;52.340;4.962;2024-01-30T08:59:47;22.25;;;21.00;;
36221;SDS011;22266;52.340;4.962;2024-01-30T09:02:14;24.50;;;24.25;;
36221;SDS011;22266;52.340;4.962;2024-01-30T09:04:42;25.25;;;22.50;;
36221;SDS011;22266;52.340;4.962;2024-01-30T09:07:09;24.00;;;20.00;;
36221;SDS011;22266;52.340;4.962;2024-01-30T09:09:37;27.00;;;24.75;;
36221;SDS011;22266;52.340;4.962;2024-01-30T09:12:06;22.00;;;21.75;;
36221;SDS011;22266;52.340;4.962;2024-01-30T09:14:35;24.75;;;21.25;;
36221;SDS011;22266;52.340;4.962;2024-01-30T09:17:03;26.50;;;25.00;;
36221;SDS011;22266;52.340;4.962;2024-01-30T09:19:30;22.25;;;19.00;;
36221;SDS011;22266;52.340;4.962;2024-01-30T09:21:57;21.75;;;18.50;;
36221;SDS011;22266;52.340;4.962;2024-01-30T09:24:24;20.75;;;20.00;;
36221;SDS011;22266;52.340;4.962;2024-01-30T09:26:52;27.00;;;23.25;;
36221;SDS011;22266;52.340;4.962;2024-01-30T09:29:19;19.75;;;18.00;;
36221;SDS011;22266;52.340;4.962;2024-01-30T09:31:45;21.00;;;21.00;;
36221;SDS011;22266;52.340;4.962;2024-01-30T09:34:12;24.75;;;24.25;;
36221;SDS011;22266;52.340;4.962;2024-01-30T09:36:39;29.50;;;26.25;;
36221;SDS011;22266;52.340;4.962;2024-01-30T09:39:06;24.50;;;22.50;;
36221;SDS011;22266;52.340;4.962;2024-01-30T09:41:33;26.00;;;22.25;;
36221;SDS011;22266;52.340;4.962;2024-01-30T09:44:11;26.00;;;26.00;;
36221;SDS011;22266;52.340;4.962;2024-01-30T09:46:38;25.25;;;21.75;;
36221;SDS011;22266;52.340;4.962;2024-01-30T09:49:05;25.75;;;24.00;;
36221;SDS011;22266;52.340;4.962;2024-01-30T09:51:34;26.75;;;23.00;;
36221;SDS011;22266;52.340;4.962;2024-01-30T09:54:02;30.50;;;28.00;;
36221;SDS011;22266;52.340;4.962;2024-01-30T09:56:29;26.50;;;25.00;;
36221;SDS011;22266;52.340;4.962;2024-01-30T09:58:55;23.75;;;22.75;;
36221;SDS011;22266;52.340;4.962;2024-01-30T10:01:22;30.25;;;26.75;;
36221;SDS011;22266;52.340;4.962;2024-01-30T10:03:50;34.00;;;30.50;;
36221;SDS011;22266;52.340;4.962;2024-01-30T10:06:19;24.00;;;23.25;;
36221;SDS011;22266;52.340;4.962;2024-01-30T10:08:49;28.00;;;27.25;;
36221;SDS011;22266;52.340;4.962;2024-01-30T10:11:15;27.00;;;26.50;;
36221;SDS011;22266;52.340;4.962;2024-01-30T10:13:42;28.25;;;25.00;;
36221;SDS011;22266;52.340;4.962;2024-01-30T10:16:09;17.25;;;17.25;;
36221;SDS011;22266;52.340;4.962;2024-01-30T10:18:35;17.00;;;14.75;;
36221;SDS011;22266;52.340;4.962;2024-01-30T10:21:02;12.00;;;11.00;;
36221;SDS011;22266;52.340;4.962;2024-01-30T10:23:29;10.75;;;9.25;;
36221;SDS011;22266;52.340;4.962;2024-01-30T10:26:02;9.00;;;8.00;;
36221;SDS011;22266;52.340;4.962;2024-01-30T10:28:30;7.00;;;6.00;;
36221;SDS011;22266;52.340;4.962;2024-01-30T10:30:57;7.75;;;6.50;;
36221;SDS011;22266;52.340;4.962;2024-01-30T10:33:31;8.25;;;6.50;;
36221;SDS011;22266;52.340;4.962;2024-01-30T10:36:02;7.25;;;5.25;;
36221;SDS011;22266;52.340;4.962;2024-01-30T10:38:31;2.00;;;2.00;;
36221;SDS011;22266;52.340;4.962;2024-01-30T10:40:59;4.50;;;2.50;;
36221;SDS011;22266;52.340;4.962;2024-01-30T10:43:31;2.25;;;1.75;;
36221;SDS011;22266;52.340;4.962;2024-01-30T10:48:56;1.00;;;0.75;;
36221;SDS011;22266;52.340;4.962;2024-01-30T10:51:26;1.00;;;1.00;;
36221;SDS011;22266;52.340;4.962;2024-01-30T10:53:53;0.50;;;0.50;;
36221;SDS011;22266;52.340;4.962;2024-01-30T10:56:21;0.00;;;0.00;;
36221;SDS011;22266;52.340;4.962;2024-01-30T10:58:49;1.00;;;1.00;;
36221;SDS011;22266;52.340;4.962;2024-01-30T11:01:21;0.25;;;0.25;;
36221;SDS011;22266;52.340;4.962;2024-01-30T11:03:50;0.75;;;0.75;;
36221;SDS011;22266;52.340;4.962;2024-01-30T11:06:18;0.25;;;0.25;;
36221;SDS011;22266;52.340;4.962;2024-01-30T11:09:01;1.00;;;1.00;;
36221;SDS011;22266;52.340;4.962;2024-01-30T11:11:55;0.00;;;0.00;;
36221;SDS011;22266;52.340;4.962;2024-01-30T11:14:27;0.00;;;0.00;;
36221;SDS011;22266;52.340;4.962;2024-01-30T11:16:59;1.00;;;1.00;;
36221;SDS011;22266;52.340;4.962;2024-01-30T11:19:26;0.25;;;0.25;;
36221;SDS011;22266;52.340;4.962;2024-01-30T11:21:57;0.00;;;0.00;;
36221;SDS011;22266;52.340;4.962;2024-01-30T11:24:24;0.00;;;0.00;;
36221;SDS011;22266;52.340;4.962;2024-01-30T11:26:56;0.00;;;0.00;;
36221;SDS011;22266;52.340;4.962;2024-01-30T11:29:27;0.00;;;0.00;;
36221;SDS011;22266;52.340;4.962;2024-01-30T11:31:55;0.00;;;0.00;;
36221;SDS011;22266;52.340;4.962;2024-01-30T11:34:23;1.00;;;0.50;;
36221;SDS011;22266;52.340;4.962;2024-01-30T11:37:03;0.00;;;0.00;;
36221;SDS011;22266;52.340;4.962;2024-01-30T11:39:33;0.00;;;0.00;;
36221;SDS011;22266;52.340;4.962;2024-01-30T11:42:00;1.00;;;1.00;;
36221;SDS011;22266;52.340;4.962;2024-01-30T11:44:27;5.00;;;2.00;;
36221;SDS011;22266;52.340;4.962;2024-01-30T11:46:54;1.50;;;1.50;;
36221;SDS011;22266;52.340;4.962;2024-01-30T11:49:21;1.00;;;1.00;;
36221;SDS011;22266;52.340;4.962;2024-01-30T11:51:48;2.00;;;2.00;;
36221;SDS011;22266;52.340;4.962;2024-01-30T11:54:15;0.75;;;0.75;;
36221;SDS011;22266;52.340;4.962;2024-01-30T11:56:42;1.00;;;1.00;;
36221;SDS011;22266;52.340;4.962;2024-01-30T11:59:09;1.50;;;1.00;;
36221;SDS011;22266;52.340;4.962;2024-01-30T12:01:36;0.75;;;0.50;;
36221;SDS011;22266;52.340;4.962;2024-01-30T12:04:02;2.00;;;1.00;;
36221;SDS011;22266;52.340;4.962;2024-01-30T12:06:35;2.00;;;1.75;;
36221;SDS011;22266;52.340;4.962;2024-01-30T12:09:02;2.75;;;1.00;;
36221;SDS011;22266;52.340;4.962;2024-01-30T12:11:44;1.75;;;1.00;;
36221;SDS011;22266;52.340;4.962;2024-01-30T12:14:11;1.00;;;1.00;;
36221;SDS011;22266;52.340;4.962;2024-01-30T12:16:38;3.00;;;0.25;;
36221;SDS011;22266;52.340;4.962;2024-01-30T12:19:05;6.00;;;3.00;;
36221;SDS011;22266;52.340;4.962;2024-01-30T12:21:33;2.50;;;2.50;;
36221;SDS011;22266;52.340;4.962;2024-01-30T12:24:00;2.25;;;2.00;;
36221;SDS011;22266;52.340;4.962;2024-01-30T12:26:27;5.00;;;4.50;;
36221;SDS011;22266;52.340;4.962;2024-01-30T12:28:54;7.00;;;5.00;;
36221;SDS011;22266;52.340;4.962;2024-01-30T12:31:25;7.00;;;2.50;;
36221;SDS011;22266;52.340;4.962;2024-01-30T12:33:54;4.50;;;4.25;;
36221;SDS011;22266;52.340;4.962;2024-01-30T12:36:22;6.00;;;5.75;;
36221;SDS011;22266;52.340;4.962;2024-01-30T12:38:49;4.50;;;3.00;;
36221;SDS011;22266;52.340;4.962;2024-01-30T12:41:16;4.25;;;3.25;;
36221;SDS011;22266;52.340;4.962;2024-01-30T12:43:43;6.00;;;3.75;;
36221;SDS011;22266;52.340;4.962;2024-01-30T12:46:10;6.75;;;5.00;;
36221;SDS011;22266;52.340;4.962;2024-01-30T12:48:37;2.00;;;2.00;;
36221;SDS011;22266;52.340;4.962;2024-01-30T12:51:04;5.00;;;3.50;;
36221;SDS011;22266;52.340;4.962;2024-01-30T12:53:31;3.50;;;2.75;;
36221;SDS011;22266;52.340;4.962;2024-01-30T12:55:57;4.00;;;3.50;;
36221;SDS011;22266;52.340;4.962;2024-01-30T12:58:24;3.75;;;3.00;;
36221;SDS011;22266;52.340;4.962;2024-01-30T13:00:51;3.00;;;2.75;;
36221;SDS011;22266;52.340;4.962;2024-01-30T13:03:18;7.50;;;6.00;;
36221;SDS011;22266;52.340;4.962;2024-01-30T13:05:45;3.00;;;3.00;;
36221;SDS011;22266;52.340;4.962;2024-01-30T13:08:11;4.00;;;4.00;;
36221;SDS011;22266;52.340;4.962;2024-01-30T13:10:38;3.00;;;3.00;;
36221;SDS011;22266;52.340;4.962;2024-01-30T13:13:04;2.50;;;2.50;;
36221;SDS011;22266;52.340;4.962;2024-01-30T13:15:39;4.00;;;2.75;;
36221;SDS011;22266;52.340;4.962;2024-01-30T13:18:06;2.50;;;2.50;;
36221;SDS011;22266;52.340;4.962;2024-01-30T13:20:33;4.75;;;4.75;;
36221;SDS011;22266;52.340;4.962;2024-01-30T13:22:59;8.00;;;6.25;;
36221;SDS011;22266;52.340;4.962;2024-01-30T13:25:26;3.00;;;3.00;;
36221;SDS011;22266;52.340;4.962;2024-01-30T13:27:53;3.25;;;2.50;;
36221;SDS011;22266;52.340;4.962;2024-01-30T13:30:19;3.00;;;3.00;;
36221;SDS011;22266;52.340;4.962;2024-01-30T13:32:46;5.00;;;3.50;;
36221;SDS011;22266;52.340;4.962;2024-01-30T13:35:12;5.75;;;4.75;;
36221;SDS011;22266;52.340;4.962;2024-01-30T13:37:39;5.25;;;3.50;;
36221;SDS011;22266;52.340;4.962;2024-01-30T13:40:08;5.00;;;5.00;;
36221;SDS011;22266;52.340;4.962;2024-01-30T13:42:39;4.50;;;4.50;;
36221;SDS011;22266;52.340;4.962;2024-01-30T13:45:06;4.50;;;2.75;;
36221;SDS011;22266;52.340;4.962;2024-01-30T13:47:36;2.00;;;2.00;;
36221;SDS011;22266;52.340;4.962;2024-01-30T13:50:03;3.00;;;2.00;;
36221;SDS011;22266;52.340;4.962;2024-01-30T13:52:30;3.00;;;3.00;;
36221;SDS011;22266;52.340;4.962;2024-01-30T13:55:03;3.75;;;3.00;;
36221;SDS011;22266;52.340;4.962;2024-01-30T13:57:30;5.00;;;3.00;;
36221;SDS011;22266;52.340;4.962;2024-01-30T14:00:02;3.25;;;3.00;;
36221;SDS011;22266;52.340;4.962;2024-01-30T14:02:38;2.00;;;2.00;;
36221;SDS011;22266;52.340;4.962;2024-01-30T14:05:05;3.50;;;3.50;;
36221;SDS011;22266;52.340;4.962;2024-01-30T14:07:32;3.00;;;2.75;;
36221;SDS011;22266;52.340;4.962;2024-01-30T14:09:59;3.50;;;2.25;;
36221;SDS011;22266;52.340;4.962;2024-01-30T14:12:26;3.00;;;3.00;;
36221;SDS011;22266;52.340;4.962;2024-01-30T14:14:53;2.25;;;2.00;;
36221;SDS011;22266;52.340;4.962;2024-01-30T14:17:19;2.00;;;2.00;;
36221;SDS011;22266;52.340;4.962;2024-01-30T14:19:46;3.00;;;3.00;;
36221;SDS011;22266;52.340;4.962;2024-01-30T14:22:12;2.25;;;2.25;;
36221;SDS011;22266;52.340;4.962;2024-01-30T14:24:39;2.75;;;2.75;;
36221;SDS011;22266;52.340;4.962;2024-01-30T14:27:06;3.50;;;3.00;;
36221;SDS011;22266;52.340;4.962;2024-01-30T14:29:34;3.00;;;2.00;;
36221;SDS011;22266;52.340;4.962;2024-01-30T14:32:01;1.00;;;1.00;;